createdAt,value
2023-11-30T00:01:25.929Z,-1.00
2023-11-30T00:03:52.694Z,-1.10
2023-11-30T00:06:19.514Z,-1.10
2023-11-30T00:08:46.487Z,-1.10
2023-11-30T00:11:13.608Z,-1.10
2023-11-30T00:13:40.350Z,-1.20
2023-11-30T00:16:07.522Z,-1.20
2023-11-30T00:18:34.238Z,-1.20
2023-11-30T00:21:00.954Z,-1.20
2023-11-30T00:23:27.658Z,-1.20
2023-11-30T00:25:54.391Z,-1.30
2023-11-30T00:28:21.090Z,-1.30
2023-11-30T00:30:47.811Z,-1.50
2023-11-30T00:33:14.610Z,-1.40
2023-11-30T00:35:41.338Z,-1.50
2023-11-30T00:38:08.092Z,-1.50
2023-11-30T00:40:34.869Z,-1.50
2023-11-30T00:43:01.897Z,-1.40
2023-11-30T00:45:28.862Z,-1.50
2023-11-30T00:47:55.637Z,-1.50
2023-11-30T00:50:22.567Z,-1.50
2023-11-30T00:52:49.565Z,-1.40
2023-11-30T00:55:16.365Z,-1.40
2023-11-30T00:57:43.081Z,-1.40
2023-11-30T01:00:10.684Z,-1.30
2023-11-30T01:02:38.725Z,-1.30
2023-11-30T01:05:05.551Z,-1.30
2023-11-30T01:07:32.324Z,-1.30
2023-11-30T01:09:59.020Z,-1.20
2023-11-30T01:12:27.930Z,-1.20
2023-11-30T01:14:55.000Z,-1.20
2023-11-30T01:17:21.876Z,-1.20
2023-11-30T01:19:48.529Z,-1.20
2023-11-30T01:22:15.371Z,-1.10
2023-11-30T01:24:42.401Z,-1.20
2023-11-30T01:27:09.157Z,-1.20
2023-11-30T01:29:35.833Z,-1.10
2023-11-30T01:32:03.170Z,-1.10
2023-11-30T01:34:29.844Z,-1.10
2023-11-30T01:36:56.509Z,-1.00
2023-11-30T01:39:23.202Z,-1.10
2023-11-30T01:41:49.940Z,-1.10
2023-11-30T01:44:16.736Z,-1.10
2023-11-30T01:46:43.652Z,-1.10
2023-11-30T01:49:10.472Z,-1.20
2023-11-30T01:51:37.703Z,-1.20
2023-11-30T01:54:04.737Z,-1.20
2023-11-30T01:56:33.295Z,-1.20
2023-11-30T01:59:00.223Z,-1.30
2023-11-30T02:01:29.804Z,-1.30
2023-11-30T02:03:56.821Z,-1.30
2023-11-30T02:06:23.637Z,-1.40
2023-11-30T02:08:50.432Z,-1.40
2023-11-30T02:11:17.183Z,-1.40
2023-11-30T02:13:44.089Z,-1.40
2023-11-30T02:16:11.071Z,-1.50
2023-11-30T02:18:37.801Z,-1.50
2023-11-30T02:21:04.551Z,-1.50
2023-11-30T02:23:31.175Z,-1.60
2023-11-30T02:25:59.646Z,-1.60
2023-11-30T02:28:26.381Z,-1.60
2023-11-30T02:30:53.147Z,-1.70
2023-11-30T02:33:20.093Z,-1.70
2023-11-30T02:35:46.867Z,-1.60
2023-11-30T02:38:13.683Z,-1.70
2023-11-30T02:40:40.409Z,-1.70
2023-11-30T02:43:07.299Z,-1.80
2023-11-30T02:45:34.157Z,-1.80
2023-11-30T02:48:01.028Z,-1.80
2023-11-30T02:50:27.726Z,-1.90
2023-11-30T02:52:54.500Z,-2.00
2023-11-30T02:55:21.640Z,-1.90
2023-11-30T02:57:49.107Z,-1.90
2023-11-30T03:00:16.091Z,-1.90
2023-11-30T03:02:42.840Z,-1.90
2023-11-30T03:05:09.599Z,-1.90
2023-11-30T03:07:36.283Z,-1.90
2023-11-30T03:10:03.151Z,-1.90
2023-11-30T03:12:29.863Z,-2.00
2023-11-30T03:14:56.626Z,-1.90
2023-11-30T03:17:23.334Z,-1.90
2023-11-30T03:19:50.027Z,-2.00
2023-11-30T03:22:16.746Z,-2.00
2023-11-30T03:24:43.451Z,-1.90
2023-11-30T03:27:13.285Z,-2.00
2023-11-30T03:29:40.178Z,-2.00
2023-11-30T03:32:07.049Z,-1.90
2023-11-30T03:34:33.814Z,-1.90
2023-11-30T03:37:00.745Z,-1.90
2023-11-30T03:39:28.737Z,-1.90
2023-11-30T03:41:55.563Z,-1.80
2023-11-30T03:44:22.257Z,-1.80
2023-11-30T03:46:49.005Z,-1.80
2023-11-30T03:49:15.921Z,-1.50
2023-11-30T03:51:42.661Z,-1.80
2023-11-30T03:54:09.473Z,-1.80
2023-11-30T03:56:36.143Z,-1.80
2023-11-30T03:59:02.846Z,-1.90
2023-11-30T04:01:29.724Z,-1.80
2023-11-30T04:03:56.486Z,-1.80
2023-11-30T04:06:24.191Z,-1.80
2023-11-30T04:08:51.576Z,-1.80
2023-11-30T04:11:18.713Z,-1.80
2023-11-30T04:13:48.550Z,-1.80
2023-11-30T04:16:16.217Z,-1.70
2023-11-30T04:18:43.288Z,-1.70
2023-11-30T04:21:10.147Z,-1.70
2023-11-30T04:23:36.979Z,-1.60
2023-11-30T04:26:04.259Z,-1.60
2023-11-30T04:28:31.027Z,-1.60
2023-11-30T04:30:58.028Z,-1.50
2023-11-30T04:33:24.871Z,-1.50
2023-11-30T04:35:51.815Z,-1.60
2023-11-30T04:38:18.552Z,-1.50
2023-11-30T04:40:45.238Z,-1.50
2023-11-30T04:43:11.937Z,-1.40
2023-11-30T04:45:38.625Z,-1.40
2023-11-30T04:48:06.039Z,-1.40
2023-11-30T04:50:32.796Z,-1.40
2023-11-30T04:52:59.468Z,-1.40
2023-11-30T04:55:26.112Z,-1.30
2023-11-30T04:57:53.443Z,-1.40
2023-11-30T05:00:20.376Z,-1.40
2023-11-30T05:02:54.352Z,-1.40
2023-11-30T05:05:21.414Z,-1.40
2023-11-30T05:07:48.196Z,-1.40
2023-11-30T05:10:15.060Z,-1.40
2023-11-30T05:12:41.678Z,-1.30
2023-11-30T05:15:08.594Z,-1.30
2023-11-30T05:17:35.438Z,-1.30
2023-11-30T05:20:04.600Z,-1.30
2023-11-30T05:22:32.399Z,-1.30
2023-11-30T05:24:59.174Z,-1.30
2023-11-30T05:27:25.965Z,-1.30
2023-11-30T05:29:52.819Z,-1.30
2023-11-30T05:32:19.751Z,-1.40
2023-11-30T05:34:46.565Z,-1.40
2023-11-30T05:37:13.234Z,-1.40
2023-11-30T05:39:40.358Z,-1.40
2023-11-30T05:42:07.064Z,-1.40
2023-11-30T05:44:33.826Z,-1.30
2023-11-30T05:47:00.585Z,-1.30
2023-11-30T05:49:27.380Z,-1.30
2023-11-30T05:51:54.099Z,-1.30
2023-11-30T05:54:20.824Z,-1.30
2023-11-30T05:56:47.600Z,-1.30
2023-11-30T05:59:14.874Z,-1.20
2023-11-30T06:01:41.671Z,-1.20
2023-11-30T06:04:08.563Z,-1.20
2023-11-30T06:06:35.371Z,-1.20
2023-11-30T06:09:02.684Z,-1.20
2023-11-30T06:11:29.378Z,-1.20
2023-11-30T06:13:56.113Z,-1.10
2023-11-30T06:16:22.861Z,-1.10
2023-11-30T06:18:49.632Z,-1.00
2023-11-30T06:21:17.934Z,-1.00
2023-11-30T06:23:45.152Z,-0.90
2023-11-30T06:26:11.947Z,-1.00
2023-11-30T06:28:38.751Z,-1.00
2023-11-30T06:31:05.663Z,-1.00
2023-11-30T06:33:32.445Z,-0.90
2023-11-30T06:35:59.335Z,-0.90
2023-11-30T06:38:26.067Z,-0.90
2023-11-30T06:40:52.867Z,-0.90
2023-11-30T06:43:19.554Z,-0.80
2023-11-30T06:45:46.296Z,-0.80
2023-11-30T06:48:13.116Z,-0.90
2023-11-30T06:50:39.827Z,-0.80
2023-11-30T06:53:06.537Z,-0.70
2023-11-30T06:55:33.257Z,-0.70
2023-11-30T06:58:00.028Z,-0.70
2023-11-30T07:00:28.071Z,-0.80
2023-11-30T07:02:57.911Z,-0.70
2023-11-30T07:05:25.474Z,-0.80
2023-11-30T07:07:52.307Z,-0.80
2023-11-30T07:10:19.031Z,-0.80
2023-11-30T07:12:46.910Z,-0.70
2023-11-30T07:15:13.733Z,-0.70
2023-11-30T07:17:40.486Z,-0.70
2023-11-30T07:20:08.061Z,-0.60
2023-11-30T07:22:35.825Z,-0.60
2023-11-30T07:25:02.804Z,-0.50
2023-11-30T07:27:29.539Z,-0.50
2023-11-30T07:29:56.698Z,-0.60
2023-11-30T07:32:23.589Z,-0.40
2023-11-30T07:34:50.379Z,-0.40
2023-11-30T07:37:18.481Z,-0.10
2023-11-30T07:39:45.485Z,-0.30
2023-11-30T07:42:13.364Z,-0.30
2023-11-30T07:44:40.949Z,-0.30
2023-11-30T07:47:07.658Z,-0.30
2023-11-30T07:49:34.383Z,-0.20
2023-11-30T07:52:01.131Z,-0.20
2023-11-30T07:54:28.120Z,-0.20
2023-11-30T07:56:54.909Z,-0.20
2023-11-30T07:59:21.645Z,-0.10
2023-11-30T08:01:48.494Z,-0.10
2023-11-30T08:04:15.605Z,0.00
2023-11-30T08:06:43.547Z,0.00
2023-11-30T08:09:10.785Z,0.10
2023-11-30T08:11:39.641Z,0.20
2023-11-30T08:14:06.679Z,0.20
2023-11-30T08:16:34.550Z,0.30
2023-11-30T08:19:01.478Z,0.30
2023-11-30T08:21:29.133Z,0.40
2023-11-30T08:23:56.002Z,0.50
2023-11-30T08:26:22.836Z,0.50
2023-11-30T08:28:51.510Z,0.60
2023-11-30T08:31:18.337Z,0.70
2023-11-30T08:33:46.161Z,0.70
2023-11-30T08:36:12.970Z,0.70
2023-11-30T08:38:39.819Z,0.80
2023-11-30T08:41:06.722Z,0.80
2023-11-30T08:43:33.508Z,0.80
2023-11-30T08:46:00.387Z,0.80
2023-11-30T08:48:27.962Z,0.90
2023-11-30T08:50:55.491Z,1.00
2023-11-30T08:53:22.342Z,1.00
2023-11-30T08:55:49.291Z,1.10
2023-11-30T08:58:16.109Z,1.10
2023-11-30T09:00:43.544Z,1.20
2023-11-30T09:03:10.752Z,1.30
2023-11-30T09:05:37.555Z,1.30
2023-11-30T09:08:04.592Z,1.30
2023-11-30T09:10:31.593Z,1.40
2023-11-30T09:12:58.482Z,1.50
2023-11-30T09:15:25.327Z,1.60
2023-11-30T09:17:52.258Z,1.70
2023-11-30T09:20:21.240Z,1.80
2023-11-30T09:22:48.150Z,1.90
2023-11-30T09:25:14.942Z,2.10
2023-11-30T09:27:43.795Z,2.10
2023-11-30T09:30:12.054Z,2.30
2023-11-30T09:32:39.365Z,2.40
2023-11-30T09:35:06.782Z,2.50
2023-11-30T09:37:33.666Z,2.60
2023-11-30T09:40:00.811Z,2.70
2023-11-30T09:42:28.096Z,2.60
2023-11-30T09:44:55.273Z,2.70
2023-11-30T09:47:22.508Z,2.50
2023-11-30T09:49:49.257Z,2.60
2023-11-30T09:52:16.006Z,2.70
2023-11-30T09:54:43.436Z,2.70
2023-11-30T09:57:10.959Z,2.70
2023-11-30T09:59:40.553Z,2.80
2023-11-30T10:02:10.246Z,2.90
2023-11-30T10:04:37.155Z,3.00
2023-11-30T10:07:03.967Z,3.10
2023-11-30T10:09:31.542Z,3.20
2023-11-30T10:11:58.876Z,3.50
2023-11-30T10:14:25.865Z,3.40
2023-11-30T10:16:53.092Z,3.40
2023-11-30T10:19:20.057Z,3.50
2023-11-30T10:21:46.873Z,3.50
2023-11-30T10:24:14.051Z,3.50
2023-11-30T10:26:43.347Z,3.70
2023-11-30T10:29:13.559Z,3.60
2023-11-30T10:31:41.048Z,3.60
2023-11-30T10:34:11.642Z,3.60
2023-11-30T10:36:43.439Z,3.70
2023-11-30T10:39:18.099Z,3.80
2023-11-30T10:41:51.610Z,3.90
2023-11-30T10:44:28.917Z,3.90
2023-11-30T10:46:56.351Z,4.00
2023-11-30T10:49:24.621Z,4.10
2023-11-30T10:52:03.583Z,4.10
2023-11-30T10:54:44.169Z,4.00
2023-11-30T10:57:11.184Z,4.00
2023-11-30T10:59:42.475Z,4.20
2023-11-30T11:02:12.187Z,4.30
2023-11-30T11:04:42.391Z,4.30
2023-11-30T11:07:12.063Z,4.30
2023-11-30T11:09:42.572Z,4.20
2023-11-30T11:12:22.954Z,4.30
2023-11-30T11:14:50.262Z,4.20
2023-11-30T11:17:20.436Z,4.20
2023-11-30T11:19:47.352Z,4.20
2023-11-30T11:22:18.171Z,4.20
2023-11-30T11:24:46.613Z,4.20
2023-11-30T11:27:26.189Z,4.20
2023-11-30T11:29:52.869Z,4.20
2023-11-30T11:32:21.888Z,4.20
2023-11-30T11:34:50.075Z,4.20
2023-11-30T11:37:16.832Z,4.10
2023-11-30T11:39:44.164Z,4.20
2023-11-30T11:42:10.994Z,4.30
2023-11-30T11:44:37.740Z,4.30
2023-11-30T11:47:04.666Z,4.20
2023-11-30T11:49:31.356Z,4.10
2023-11-30T11:51:58.069Z,3.90
2023-11-30T11:54:24.825Z,3.90
2023-11-30T11:56:52.559Z,3.80
2023-11-30T11:59:27.541Z,3.90
2023-11-30T12:01:55.507Z,4.00
2023-11-30T12:04:33.025Z,4.00
2023-11-30T12:07:00.247Z,4.10
2023-11-30T12:09:27.354Z,4.00
2023-11-30T12:11:55.709Z,4.00
2023-11-30T12:14:23.486Z,4.10
2023-11-30T12:16:50.369Z,4.00
2023-11-30T12:19:20.978Z,4.00
2023-11-30T12:21:48.297Z,4.10
2023-11-30T12:24:15.819Z,4.10
2023-11-30T12:26:42.886Z,4.00
2023-11-30T12:29:11.327Z,4.00
2023-11-30T12:31:38.573Z,4.10
2023-11-30T12:34:06.011Z,4.00
2023-11-30T12:36:33.227Z,3.90
2023-11-30T12:39:00.693Z,3.90
2023-11-30T12:41:27.875Z,4.10
2023-11-30T12:43:55.234Z,4.00
2023-11-30T12:46:23.002Z,4.00
2023-11-30T12:48:50.808Z,3.90
2023-11-30T12:51:17.647Z,3.90
2023-11-30T12:53:44.733Z,3.80
2023-11-30T12:56:11.753Z,3.70
2023-11-30T12:58:38.576Z,3.80
2023-11-30T13:01:06.365Z,3.90
2023-11-30T13:03:33.259Z,3.90
2023-11-30T13:06:00.037Z,3.80
2023-11-30T13:08:26.739Z,3.90
2023-11-30T13:10:53.457Z,4.00
2023-11-30T13:13:26.086Z,4.00
2023-11-30T13:16:01.974Z,4.10
2023-11-30T13:18:29.631Z,4.10
2023-11-30T13:20:56.336Z,4.10
2023-11-30T13:23:23.848Z,4.10
2023-11-30T13:25:50.993Z,4.10
2023-11-30T13:28:17.755Z,4.10
2023-11-30T13:30:44.516Z,4.10
2023-11-30T13:33:11.460Z,4.00
2023-11-30T13:35:40.294Z,4.00
2023-11-30T13:38:07.221Z,4.00
2023-11-30T13:40:34.733Z,4.10
2023-11-30T13:43:01.398Z,4.10
2023-11-30T13:45:28.137Z,4.00
2023-11-30T13:47:56.100Z,4.00
2023-11-30T13:50:30.693Z,4.00
2023-11-30T13:53:03.838Z,3.90
2023-11-30T13:55:31.044Z,3.80
2023-11-30T13:57:57.860Z,3.80
2023-11-30T14:00:24.831Z,3.80
2023-11-30T14:02:51.785Z,3.80
2023-11-30T14:05:18.592Z,3.80
2023-11-30T14:07:45.306Z,3.80
2023-11-30T14:10:12.798Z,3.70
2023-11-30T14:12:39.661Z,3.70
2023-11-30T14:15:12.189Z,3.70
2023-11-30T14:17:39.691Z,3.60
2023-11-30T14:20:07.264Z,3.60
2023-11-30T14:22:34.001Z,3.60
2023-11-30T14:25:01.030Z,3.70
2023-11-30T14:27:27.885Z,3.70
2023-11-30T14:29:55.167Z,3.80
2023-11-30T14:32:22.261Z,3.80
2023-11-30T14:34:49.138Z,3.80
2023-11-30T14:37:16.302Z,3.80
2023-11-30T14:39:43.043Z,3.80
2023-11-30T14:42:10.504Z,3.80
2023-11-30T14:44:37.819Z,3.80
2023-11-30T14:47:07.487Z,3.80
2023-11-30T14:49:34.525Z,3.70
2023-11-30T14:52:02.235Z,3.70
2023-11-30T14:54:29.703Z,3.60
2023-11-30T14:56:57.021Z,3.60
2023-11-30T14:59:24.023Z,3.60
2023-11-30T15:01:52.640Z,3.60
2023-11-30T15:04:20.272Z,3.60
2023-11-30T15:06:47.452Z,3.60
2023-11-30T15:09:16.294Z,3.60
2023-11-30T15:11:45.276Z,3.60
2023-11-30T15:14:11.978Z,3.60
2023-11-30T15:16:39.398Z,3.50
2023-11-30T15:19:06.243Z,3.50
2023-11-30T15:21:33.054Z,3.50
2023-11-30T15:23:59.734Z,3.40
2023-11-30T15:26:26.488Z,3.40
2023-11-30T15:28:56.372Z,3.40
2023-11-30T15:31:23.522Z,3.50
2023-11-30T15:33:50.815Z,3.40
2023-11-30T15:36:17.629Z,3.50
2023-11-30T15:38:44.349Z,3.50
2023-11-30T15:41:11.105Z,3.60
2023-11-30T15:43:38.589Z,3.60
2023-11-30T15:46:05.730Z,3.60
2023-11-30T15:48:33.516Z,3.60
2023-11-30T15:51:02.161Z,3.60
2023-11-30T15:53:29.510Z,3.60
2023-11-30T15:55:56.296Z,3.70
2023-11-30T15:58:23.674Z,3.70
2023-11-30T16:00:51.165Z,3.70
2023-11-30T16:03:18.622Z,3.60
2023-11-30T16:05:45.435Z,3.60
2023-11-30T16:08:12.150Z,3.60
2023-11-30T16:10:39.249Z,3.60
2023-11-30T16:13:06.064Z,3.50
2023-11-30T16:15:32.852Z,3.50
2023-11-30T16:17:59.859Z,3.50
2023-11-30T16:20:26.554Z,3.50
2023-11-30T16:22:53.308Z,3.50
2023-11-30T16:25:20.095Z,3.40
2023-11-30T16:27:46.930Z,3.50
2023-11-30T16:30:13.800Z,3.50
2023-11-30T16:32:40.693Z,3.50
2023-11-30T16:35:08.967Z,3.60
2023-11-30T16:37:35.796Z,3.60
2023-11-30T16:40:04.161Z,3.70
2023-11-30T16:42:30.981Z,3.60
2023-11-30T16:44:57.814Z,3.60
2023-11-30T16:47:24.554Z,3.40
2023-11-30T16:49:54.081Z,3.50
2023-11-30T16:52:20.859Z,3.50
2023-11-30T16:54:47.639Z,3.40
2023-11-30T16:57:14.367Z,3.20
2023-11-30T16:59:41.130Z,3.30
2023-11-30T17:02:07.878Z,3.40
2023-11-30T17:04:34.617Z,3.40
2023-11-30T17:07:01.527Z,3.40
2023-11-30T17:09:28.584Z,3.50
2023-11-30T17:11:55.403Z,3.50
2023-11-30T17:14:22.520Z,3.50
2023-11-30T17:16:49.476Z,3.50
2023-11-30T17:19:16.556Z,3.50
2023-11-30T17:21:45.064Z,3.50
2023-11-30T17:24:13.500Z,3.50
2023-11-30T17:26:40.189Z,3.50
2023-11-30T17:29:06.943Z,3.50
2023-11-30T17:31:33.663Z,3.40
2023-11-30T17:34:01.602Z,3.40
2023-11-30T17:36:28.411Z,3.40
2023-11-30T17:38:55.211Z,3.40
2023-11-30T17:41:22.081Z,3.40
2023-11-30T17:43:48.755Z,3.40
2023-11-30T17:46:16.167Z,3.40
2023-11-30T17:48:42.985Z,3.40
2023-11-30T17:51:12.865Z,3.50
2023-11-30T17:53:39.911Z,3.40
2023-11-30T17:56:07.612Z,3.40
2023-11-30T17:58:34.631Z,3.40
2023-11-30T18:01:02.020Z,3.40
2023-11-30T18:03:28.990Z,3.40
2023-11-30T18:05:55.863Z,3.30
2023-11-30T18:08:23.382Z,3.30
2023-11-30T18:10:50.262Z,3.40
2023-11-30T18:13:17.149Z,3.40
2023-11-30T18:15:44.058Z,3.30
2023-11-30T18:18:10.937Z,3.20
2023-11-30T18:20:37.909Z,3.10
2023-11-30T18:23:04.569Z,3.10
2023-11-30T18:25:31.259Z,3.20
2023-11-30T18:27:58.060Z,3.10
2023-11-30T18:30:24.821Z,3.20
2023-11-30T18:32:51.806Z,3.20
2023-11-30T18:35:18.623Z,3.10
2023-11-30T18:37:45.415Z,3.10
2023-11-30T18:40:15.366Z,3.00
2023-11-30T18:42:43.269Z,3.00
2023-11-30T18:45:10.358Z,3.10
2023-11-30T18:47:40.019Z,3.00
2023-11-30T18:50:07.552Z,3.00
2023-11-30T18:52:35.607Z,3.00
2023-11-30T18:55:03.630Z,2.90
2023-11-30T18:57:30.689Z,3.00
2023-11-30T18:59:57.549Z,3.10
2023-11-30T19:02:27.858Z,3.10
2023-11-30T19:04:56.893Z,3.10
2023-11-30T19:07:24.029Z,3.20
2023-11-30T19:09:52.713Z,3.20
2023-11-30T19:12:20.057Z,3.30
2023-11-30T19:14:51.345Z,3.30
2023-11-30T19:17:19.198Z,3.20
2023-11-30T19:19:45.865Z,3.20
2023-11-30T19:22:12.838Z,3.20
2023-11-30T19:24:40.511Z,3.20
2023-11-30T19:27:07.269Z,3.20
2023-11-30T19:29:36.198Z,3.20
2023-11-30T19:32:03.168Z,3.20
2023-11-30T19:34:29.954Z,3.20
2023-11-30T19:36:57.652Z,3.20
2023-11-30T19:39:24.764Z,3.30
2023-11-30T19:41:51.842Z,3.30
2023-11-30T19:44:19.080Z,3.30
2023-11-30T19:46:49.322Z,3.30
2023-11-30T19:49:16.242Z,3.30
2023-11-30T19:51:43.523Z,3.30
2023-11-30T19:54:10.456Z,3.30
2023-11-30T19:56:39.388Z,3.30
2023-11-30T19:59:06.262Z,3.30
2023-11-30T20:01:33.161Z,3.30
2023-11-30T20:04:00.373Z,3.20
2023-11-30T20:06:27.608Z,3.20
2023-11-30T20:08:54.947Z,3.20
2023-11-30T20:11:22.659Z,3.20
2023-11-30T20:13:49.441Z,3.20
2023-11-30T20:16:16.280Z,3.20
2023-11-30T20:18:43.046Z,3.10
2023-11-30T20:21:19.563Z,3.20
2023-11-30T20:23:46.359Z,3.00
2023-11-30T20:26:13.068Z,3.00
2023-11-30T20:28:39.897Z,3.00
2023-11-30T20:31:06.826Z,3.10
2023-11-30T20:33:33.639Z,3.10
2023-11-30T20:36:00.408Z,3.20
2023-11-30T20:38:29.421Z,3.20
2023-11-30T20:40:56.274Z,3.20
2023-11-30T20:43:23.086Z,3.20
2023-11-30T20:45:50.002Z,3.30
2023-11-30T20:48:17.517Z,3.30
2023-11-30T20:50:44.380Z,3.30
2023-11-30T20:53:11.699Z,3.30
2023-11-30T20:55:38.456Z,3.30
2023-11-30T20:58:05.423Z,3.30
2023-11-30T21:00:32.229Z,3.30
2023-11-30T21:02:59.114Z,3.20
2023-11-30T21:05:26.069Z,3.20
2023-11-30T21:07:52.797Z,3.20
2023-11-30T21:10:19.773Z,3.10
2023-11-30T21:12:46.486Z,3.10
2023-11-30T21:15:13.337Z,3.10
2023-11-30T21:17:40.104Z,3.10
2023-11-30T21:20:07.230Z,3.10
2023-11-30T21:22:35.022Z,3.20
2023-11-30T21:25:02.010Z,3.20
2023-11-30T21:27:28.865Z,3.20
2023-11-30T21:29:55.609Z,3.20
2023-11-30T21:32:22.394Z,3.20
2023-11-30T21:34:49.210Z,3.20
2023-11-30T21:37:15.943Z,3.20
2023-11-30T21:39:43.099Z,3.20
2023-11-30T21:42:12.329Z,3.20
2023-11-30T21:44:41.033Z,3.20
2023-11-30T21:47:14.174Z,3.20
2023-11-30T21:49:47.743Z,3.10
2023-11-30T21:52:15.066Z,3.10
2023-11-30T21:54:42.527Z,3.10
2023-11-30T21:57:09.840Z,3.10
2023-11-30T21:59:38.150Z,3.10
2023-11-30T22:02:05.810Z,3.20
2023-11-30T22:04:33.415Z,3.10
2023-11-30T22:07:00.356Z,3.10
2023-11-30T22:09:27.113Z,3.20
2023-11-30T22:11:55.579Z,3.10
2023-11-30T22:14:23.279Z,3.00
2023-11-30T22:16:50.140Z,3.00
2023-11-30T22:19:18.726Z,3.10
2023-11-30T22:21:45.532Z,3.10
2023-11-30T22:24:12.553Z,3.10
2023-11-30T22:26:41.076Z,3.10
2023-11-30T22:29:07.751Z,3.10
2023-11-30T22:31:34.824Z,3.10
2023-11-30T22:34:02.105Z,3.00
2023-11-30T22:36:29.045Z,3.00
2023-11-30T22:38:55.910Z,3.10
2023-11-30T22:41:22.700Z,3.00
2023-11-30T22:43:49.391Z,3.10
2023-11-30T22:46:19.636Z,3.00
2023-11-30T22:48:47.217Z,3.00
2023-11-30T22:51:14.132Z,3.00
2023-11-30T22:53:40.861Z,3.00
2023-11-30T22:56:07.751Z,3.00
2023-11-30T22:58:34.479Z,3.00
2023-11-30T23:01:01.770Z,3.00
2023-11-30T23:03:28.845Z,3.00
2023-11-30T23:05:55.767Z,3.00
2023-11-30T23:08:22.535Z,3.00
2023-11-30T23:10:49.371Z,3.00
2023-11-30T23:13:16.015Z,3.00
2023-11-30T23:15:42.839Z,3.00
2023-11-30T23:18:09.649Z,3.00
2023-11-30T23:20:36.444Z,3.00
2023-11-30T23:23:04.264Z,3.00
2023-11-30T23:25:31.036Z,3.00
2023-11-30T23:27:59.369Z,3.00
2023-11-30T23:30:26.484Z,2.90
2023-11-30T23:32:53.483Z,2.90
2023-11-30T23:35:20.371Z,3.00
2023-11-30T23:37:47.679Z,3.00
2023-11-30T23:40:14.441Z,3.00
2023-11-30T23:42:41.172Z,2.90
2023-11-30T23:45:08.201Z,3.00
2023-11-30T23:47:34.982Z,3.00
2023-11-30T23:50:01.721Z,3.00
2023-11-30T23:52:29.451Z,3.00
2023-11-30T23:54:56.222Z,3.00
2023-11-30T23:57:22.931Z,3.00
2023-11-30T23:59:49.751Z,3.00
